Aviation Digital Data Service (ADDS)

Output produced by METARs form (1246 UTC 17 August 2019)
found at http://aviationweather.gov/metar/data/
 
METAR text: KLZZ 171235Z AUTO 19005KT 10SM CLR 25/22 A2990 RMK AO2 T02470218
Conditions at: KLZZ (LAMPASAS , TX, US) observed 1235 UTC 17 August 2019
Temperature: 24.7°C (76°F)
Dewpoint: 21.8°C (71°F) [RH = 84%]
Pressure (altimeter): 29.90 inches Hg (1012.6 mb)
Winds: from the S (190 degrees) at 6 MPH (5 knots; 2.6 m/s)
Visibility: 10 or more miles (16+ km)
Ceiling: at least 12,000 feet AGL
Clouds: sky clear below 12,000 feet AGL
Weather: automated observation with no human augmentation;
there may or may not be significant weather present at this time

METAR text: KLZZ 171215Z AUTO 19004KT 10SM CLR 25/22 A2989 RMK AO2 T02450216
Conditions at: KLZZ (LAMPASAS , TX, US) observed 1215 UTC 17 August 2019
Temperature: 24.5°C (76°F)
Dewpoint: 21.6°C (71°F) [RH = 84%]
Pressure (altimeter): 29.89 inches Hg (1012.3 mb)
Winds: from the S (190 degrees) at 5 MPH (4 knots; 2.1 m/s)
Visibility: 10 or more miles (16+ km)
Ceiling: at least 12,000 feet AGL
Clouds: sky clear below 12,000 feet AGL
Weather: automated observation with no human augmentation;
there may or may not be significant weather present at this time

METAR text: KLZZ 171155Z AUTO 19005KT 10SM CLR 24/22 A2990 RMK AO2 T02430215 10291 20242
Conditions at: KLZZ (LAMPASAS , TX, US) observed 1155 UTC 17 August 2019
Temperature: 24.3°C (76°F)
Dewpoint: 21.5°C (71°F) [RH = 84%]
Pressure (altimeter): 29.90 inches Hg (1012.6 mb)
Winds: from the S (190 degrees) at 6 MPH (5 knots; 2.6 m/s)
Visibility: 10 or more miles (16+ km)
Ceiling: at least 12,000 feet AGL
Clouds: sky clear below 12,000 feet AGL
Weather: automated observation with no human augmentation;
there may or may not be significant weather present at this time

METAR text: KLZZ 171135Z AUTO 19004KT 10SM CLR 25/22 A2990 RMK AO2 T02450215
Conditions at: KLZZ (LAMPASAS , TX, US) observed 1135 UTC 17 August 2019
Temperature: 24.5°C (76°F)
Dewpoint: 21.5°C (71°F) [RH = 83%]
Pressure (altimeter): 29.90 inches Hg (1012.6 mb)
Winds: from the S (190 degrees) at 5 MPH (4 knots; 2.1 m/s)
Visibility: 10 or more miles (16+ km)
Ceiling: at least 12,000 feet AGL
Clouds: sky clear below 12,000 feet AGL
Weather: automated observation with no human augmentation;
there may or may not be significant weather present at this time

METAR text: KLZZ 171115Z AUTO 18005KT 10SM CLR 25/21 A2990 RMK AO2 T02450213
Conditions at: KLZZ (LAMPASAS , TX, US) observed 1115 UTC 17 August 2019
Temperature: 24.5°C (76°F)
Dewpoint: 21.3°C (70°F) [RH = 82%]
Pressure (altimeter): 29.90 inches Hg (1012.6 mb)
Winds: from the S (180 degrees) at 6 MPH (5 knots; 2.6 m/s)
Visibility: 10 or more miles (16+ km)
Ceiling: at least 12,000 feet AGL
Clouds: sky clear below 12,000 feet AGL
Weather: automated observation with no human augmentation;
there may or may not be significant weather present at this time

METAR text: KLZZ 171055Z AUTO 18005KT 10SM CLR 25/21 A2990 RMK AO2 T02470212
Conditions at: KLZZ (LAMPASAS , TX, US) observed 1055 UTC 17 August 2019
Temperature: 24.7°C (76°F)
Dewpoint: 21.2°C (70°F) [RH = 81%]
Pressure (altimeter): 29.90 inches Hg (1012.6 mb)
Winds: from the S (180 degrees) at 6 MPH (5 knots; 2.6 m/s)
Visibility: 10 or more miles (16+ km)
Ceiling: at least 12,000 feet AGL
Clouds: sky clear below 12,000 feet AGL
Weather: automated observation with no human augmentation;
there may or may not be significant weather present at this time